createdAt,value
2022-11-22T00:00:50.204Z,3.42
2022-11-22T00:03:17.574Z,1.65
2022-11-22T00:05:44.976Z,3.33
2022-11-22T00:08:12.388Z,2.60
2022-11-22T00:10:39.771Z,2.10
2022-11-22T00:13:07.199Z,2.83
2022-11-22T00:15:34.649Z,3.20
2022-11-22T00:18:02.197Z,3.28
2022-11-22T00:20:29.696Z,1.73
2022-11-22T00:22:58.200Z,1.83
2022-11-22T00:25:25.570Z,2.33
2022-11-22T00:27:52.926Z,4.70
2022-11-22T00:30:21.393Z,3.20
2022-11-22T00:32:49.059Z,2.05
2022-11-22T00:35:16.406Z,4.93
2022-11-22T00:37:43.906Z,5.10
2022-11-22T00:40:11.461Z,3.00
2022-11-22T00:42:40.103Z,1.90
2022-11-22T00:45:10.130Z,3.55
2022-11-22T00:47:39.757Z,3.60
2022-11-22T00:50:07.326Z,4.85
2022-11-22T00:52:34.696Z,3.50
2022-11-22T00:55:02.085Z,2.47
2022-11-22T00:57:29.553Z,3.80
2022-11-22T00:59:56.936Z,4.28
2022-11-22T01:02:24.447Z,3.78
2022-11-22T01:04:51.841Z,5.10
2022-11-22T01:07:19.259Z,3.17
2022-11-22T01:09:46.643Z,2.83
2022-11-22T01:12:14.065Z,2.63
2022-11-22T01:14:41.507Z,3.53
2022-11-22T01:17:08.948Z,2.40
2022-11-22T01:19:39.523Z,4.22
2022-11-22T01:22:06.864Z,3.88
2022-11-22T01:24:34.247Z,2.83
2022-11-22T01:27:01.568Z,4.18
2022-11-22T01:29:29.133Z,2.95
2022-11-22T01:31:56.560Z,3.08
2022-11-22T01:34:23.921Z,4.65
2022-11-22T01:36:51.827Z,3.88
2022-11-22T01:39:19.197Z,2.00
2022-11-22T01:41:46.537Z,3.00
2022-11-22T01:44:25.480Z,4.13
2022-11-22T01:52:01.645Z,3.15
2022-11-22T01:54:30.761Z,1.92
2022-11-22T01:56:59.628Z,2.40
2022-11-22T01:59:28.551Z,3.85
2022-11-22T02:01:56.293Z,3.30
2022-11-22T02:04:25.003Z,3.13
2022-11-22T02:06:59.388Z,4.35
2022-11-22T02:09:28.136Z,3.22
2022-11-22T02:11:57.235Z,2.40
2022-11-22T02:14:28.482Z,2.15
2022-11-22T02:16:56.034Z,2.92
2022-11-22T02:19:34.759Z,3.30
2022-11-22T02:22:07.160Z,5.95
2022-11-22T02:24:41.431Z,4.60
2022-11-22T02:27:08.794Z,2.78
2022-11-22T02:29:36.402Z,2.30
2022-11-22T02:32:03.857Z,5.13
2022-11-22T02:34:31.218Z,2.17
2022-11-22T02:36:58.722Z,2.17
2022-11-22T02:39:29.257Z,3.92
2022-11-22T02:41:57.467Z,2.15
2022-11-22T02:44:26.474Z,3.55
2022-11-22T02:49:22.494Z,1.98
2022-11-22T02:51:50.079Z,3.37
2022-11-22T02:54:18.634Z,3.72
2022-11-22T02:56:46.547Z,3.78
2022-11-22T02:59:13.968Z,2.20
2022-11-22T03:01:41.900Z,3.10
2022-11-22T03:04:24.820Z,3.15
2022-11-22T03:06:53.315Z,3.70
2022-11-22T03:09:20.735Z,1.50
2022-11-22T03:11:48.239Z,2.28
2022-11-22T03:14:16.050Z,3.65
2022-11-22T03:16:43.997Z,3.00
2022-11-22T03:19:12.607Z,3.15
2022-11-22T03:21:40.579Z,2.10
2022-11-22T03:24:08.701Z,5.03
2022-11-22T03:26:36.210Z,4.30
2022-11-22T03:29:03.600Z,3.63
2022-11-22T03:31:33.255Z,2.53
2022-11-22T03:34:00.593Z,2.72
2022-11-22T03:36:30.420Z,1.65
2022-11-22T03:38:59.999Z,3.45
2022-11-22T03:41:27.308Z,3.72
2022-11-22T03:43:54.650Z,2.42
2022-11-22T03:46:21.989Z,3.65
2022-11-22T03:48:49.324Z,3.25
2022-11-22T03:51:16.733Z,3.08
2022-11-22T03:53:44.533Z,3.13
2022-11-22T03:56:11.946Z,2.35
2022-11-22T03:58:39.371Z,4.40
2022-11-22T04:01:14.985Z,3.08
2022-11-22T04:03:43.930Z,2.47
2022-11-22T04:06:11.369Z,2.00
2022-11-22T04:08:38.726Z,1.92
2022-11-22T04:11:06.225Z,2.30
2022-11-22T04:13:52.144Z,2.92
2022-11-22T04:16:19.542Z,3.40
2022-11-22T04:18:46.883Z,1.88
2022-11-22T04:21:34.300Z,4.35
2022-11-22T04:24:20.961Z,2.88
2022-11-22T04:26:49.269Z,2.75
2022-11-22T04:29:17.093Z,1.73
2022-11-22T04:32:03.384Z,2.42
2022-11-22T04:34:30.805Z,2.80
2022-11-22T04:36:58.196Z,3.13
2022-11-22T04:39:25.565Z,5.47
2022-11-22T04:42:15.349Z,4.07
2022-11-22T04:44:43.473Z,4.28
2022-11-22T04:47:11.629Z,8.70
2022-11-22T04:49:39.064Z,5.00
2022-11-22T04:52:25.224Z,3.78
2022-11-22T04:54:52.564Z,4.30
2022-11-22T04:57:19.968Z,3.80
2022-11-22T04:59:47.230Z,2.42
2022-11-22T05:02:17.015Z,3.85
2022-11-22T05:04:50.254Z,3.63
2022-11-22T05:07:18.172Z,3.55
2022-11-22T05:09:45.645Z,4.43
2022-11-22T05:12:13.100Z,3.50
2022-11-22T05:14:40.520Z,4.22
2022-11-22T05:17:11.662Z,3.13
2022-11-22T05:19:43.600Z,7.53
2022-11-22T05:22:13.689Z,7.75
2022-11-22T05:24:43.474Z,5.40
2022-11-22T05:27:10.918Z,2.28
2022-11-22T05:29:38.276Z,3.42
2022-11-22T05:32:05.757Z,2.95
2022-11-22T05:34:33.142Z,2.47
2022-11-22T05:37:00.541Z,4.32
2022-11-22T05:39:28.078Z,3.00
2022-11-22T05:41:58.328Z,4.40
2022-11-22T05:44:25.607Z,3.03
2022-11-22T05:46:52.966Z,1.90
2022-11-22T05:49:20.266Z,4.38
2022-11-22T05:51:47.718Z,4.03
2022-11-22T05:54:15.074Z,1.88
2022-11-22T05:56:42.464Z,4.75
2022-11-22T05:59:09.785Z,2.85
2022-11-22T06:01:37.118Z,2.50
2022-11-22T06:04:04.535Z,2.95
2022-11-22T06:06:31.954Z,3.35
2022-11-22T06:08:59.680Z,4.60
2022-11-22T06:11:27.849Z,2.60
2022-11-22T06:13:56.680Z,4.30
2022-11-22T06:16:26.736Z,3.17
2022-11-22T06:18:54.521Z,6.32
2022-11-22T06:21:28.504Z,2.88
2022-11-22T06:23:58.469Z,2.42
2022-11-22T06:26:26.388Z,3.13
2022-11-22T06:28:54.844Z,3.85
2022-11-22T06:31:26.214Z,3.63
2022-11-22T06:33:54.225Z,2.65
2022-11-22T06:36:22.994Z,4.67
2022-11-22T06:38:50.600Z,2.33
2022-11-22T06:41:21.142Z,5.13
2022-11-22T06:43:49.750Z,4.13
2022-11-22T06:46:18.447Z,4.00
2022-11-22T06:48:45.853Z,1.73
2022-11-22T06:51:15.692Z,3.03
2022-11-22T06:53:47.798Z,3.90
2022-11-22T06:56:17.745Z,6.28
2022-11-22T07:01:17.047Z,2.53
2022-11-22T07:03:44.731Z,3.00
2022-11-22T07:06:13.062Z,4.30
2022-11-22T07:08:40.758Z,3.47
2022-11-22T07:11:09.330Z,2.72
2022-11-22T07:13:39.197Z,3.00
2022-11-22T07:16:08.441Z,1.42
2022-11-22T07:18:35.909Z,3.45
2022-11-22T07:21:12.412Z,1.77
2022-11-22T07:23:41.309Z,2.70
2022-11-22T07:26:08.790Z,2.63
2022-11-22T07:28:36.108Z,2.60
2022-11-22T07:31:04.940Z,2.08
2022-11-22T07:33:32.473Z,2.17
2022-11-22T07:36:10.096Z,2.47
2022-11-22T07:38:37.838Z,3.38
2022-11-22T07:41:05.625Z,1.58
2022-11-22T07:43:33.163Z,1.83
2022-11-22T07:46:06.684Z,3.95
2022-11-22T07:48:34.013Z,3.03
2022-11-22T07:51:07.116Z,1.13
2022-11-22T07:53:35.238Z,2.72
2022-11-22T07:56:06.129Z,4.63
2022-11-22T07:58:34.025Z,3.85
2022-11-22T08:01:11.756Z,3.55
2022-11-22T08:03:39.230Z,2.15
2022-11-22T08:06:07.600Z,1.80
2022-11-22T08:08:35.649Z,5.20
2022-11-22T08:11:03.049Z,2.33
2022-11-22T08:13:30.862Z,3.45
2022-11-22T08:16:05.009Z,4.03
2022-11-22T08:18:33.119Z,4.03
2022-11-22T08:21:04.829Z,4.47
2022-11-22T08:23:32.198Z,3.85
2022-11-22T08:25:59.996Z,3.97
2022-11-22T08:28:27.449Z,2.15
2022-11-22T08:31:02.623Z,3.15
2022-11-22T08:33:30.087Z,3.05
2022-11-22T08:35:57.389Z,2.05
2022-11-22T08:38:24.752Z,4.18
2022-11-22T08:40:52.251Z,3.17
2022-11-22T08:43:20.363Z,2.10
2022-11-22T08:45:49.652Z,2.63
2022-11-22T08:48:22.029Z,2.03
2022-11-22T08:50:59.958Z,3.63
2022-11-22T08:53:27.883Z,5.53
2022-11-22T08:55:55.671Z,2.67
2022-11-22T08:58:23.383Z,3.00
2022-11-22T09:00:50.740Z,3.00
2022-11-22T09:03:18.151Z,2.97
2022-11-22T09:08:36.404Z,1.92
2022-11-22T09:11:13.381Z,2.55
2022-11-22T09:13:40.918Z,1.63
2022-11-22T09:16:12.767Z,4.25
2022-11-22T09:18:40.303Z,2.30
2022-11-22T09:21:09.037Z,1.95
2022-11-22T09:23:37.175Z,1.38
2022-11-22T09:26:09.245Z,1.70
2022-11-22T09:28:37.768Z,2.38
2022-11-22T09:31:06.444Z,2.53
2022-11-22T09:33:35.025Z,3.78
2022-11-22T09:36:06.971Z,1.75
2022-11-22T09:38:34.961Z,3.22
2022-11-22T09:41:03.809Z,4.20
2022-11-22T09:43:58.084Z,3.58
2022-11-22T09:46:28.164Z,1.85
2022-11-22T09:49:04.629Z,1.92
2022-11-22T09:51:44.757Z,2.70
2022-11-22T09:54:14.616Z,4.35
2022-11-22T09:56:42.465Z,1.38
2022-11-22T09:59:16.428Z,1.98
2022-11-22T10:01:50.432Z,2.17
2022-11-22T10:04:25.152Z,2.63
2022-11-22T10:06:55.059Z,3.35
2022-11-22T10:09:41.945Z,3.25
2022-11-22T10:12:19.198Z,2.70
2022-11-22T10:14:46.557Z,2.95
2022-11-22T10:17:13.890Z,3.30
2022-11-22T10:19:50.646Z,5.50
2022-11-22T10:22:18.003Z,1.80
2022-11-22T10:24:45.433Z,3.28
2022-11-22T10:27:14.183Z,2.83
2022-11-22T10:29:43.720Z,3.28
2022-11-22T10:32:19.207Z,2.40
2022-11-22T10:35:12.771Z,2.95
2022-11-22T10:37:58.633Z,3.08
2022-11-22T10:40:31.307Z,2.25
2022-11-22T10:43:03.955Z,2.25
2022-11-22T10:45:51.569Z,4.35
2022-11-22T10:48:21.643Z,2.58
2022-11-22T10:50:59.119Z,2.47
2022-11-22T10:53:32.626Z,3.78
2022-11-22T10:56:30.802Z,2.97
2022-11-22T10:59:00.437Z,3.13
2022-11-22T11:01:54.654Z,4.00
2022-11-22T11:04:23.192Z,2.35
2022-11-22T11:07:11.543Z,3.45
2022-11-22T11:10:10.291Z,5.30
2022-11-22T11:12:39.676Z,4.05
2022-11-22T11:15:18.441Z,4.47
2022-11-22T11:17:46.722Z,2.85
2022-11-22T11:20:46.102Z,2.65
2022-11-22T11:23:15.227Z,3.13
2022-11-22T11:25:44.444Z,3.42
2022-11-22T11:28:24.545Z,5.22
2022-11-22T11:30:53.911Z,3.13
2022-11-22T11:33:21.397Z,2.67
2022-11-22T11:35:48.976Z,2.53
2022-11-22T11:38:45.817Z,2.63
2022-11-22T11:41:24.141Z,3.08
2022-11-22T11:43:55.424Z,2.30
2022-11-22T11:46:24.284Z,3.67
2022-11-22T11:48:52.450Z,2.58
2022-11-22T11:51:22.653Z,1.50
2022-11-22T11:53:59.050Z,1.52
2022-11-22T11:56:40.306Z,3.13
2022-11-22T11:59:13.173Z,1.83
2022-11-22T12:01:44.740Z,4.38
2022-11-22T12:04:16.988Z,3.53
2022-11-22T12:06:58.733Z,3.38
2022-11-22T12:09:30.740Z,2.30
2022-11-22T12:14:37.743Z,1.65
2022-11-22T12:17:27.308Z,2.25
2022-11-22T12:20:09.300Z,2.45
2022-11-22T12:22:51.047Z,2.78
2022-11-22T12:25:31.957Z,5.80
2022-11-22T12:28:04.142Z,6.75
2022-11-22T12:30:33.477Z,6.80
2022-11-22T12:33:03.301Z,4.88
2022-11-22T12:35:41.211Z,5.18
2022-11-22T12:38:17.600Z,4.85
2022-11-22T12:40:49.595Z,3.88
2022-11-22T12:43:24.804Z,7.97
2022-11-22T12:45:53.955Z,5.55
2022-11-22T12:48:31.052Z,5.38
2022-11-22T12:51:01.989Z,6.00
2022-11-22T12:53:31.653Z,5.70
2022-11-22T12:55:59.168Z,8.95
2022-11-22T12:58:41.461Z,6.60
2022-11-22T13:01:11.693Z,6.72
2022-11-22T13:03:47.492Z,3.17
2022-11-22T13:06:17.488Z,5.50
2022-11-22T13:08:53.266Z,4.50
2022-11-22T13:11:31.198Z,10.60
2022-11-22T13:14:04.097Z,5.35
2022-11-22T13:16:31.647Z,6.10
2022-11-22T13:19:04.172Z,4.20
2022-11-22T13:21:50.085Z,5.20
2022-11-22T13:24:26.386Z,6.50
2022-11-22T13:27:21.095Z,8.80
2022-11-22T13:29:48.663Z,4.20
2022-11-22T13:32:20.006Z,5.07
2022-11-22T13:35:07.030Z,6.88
2022-11-22T13:37:43.672Z,5.75
2022-11-22T13:40:17.098Z,6.60
2022-11-22T13:42:44.490Z,7.00
2022-11-22T13:45:24.854Z,4.63
2022-11-22T13:47:52.982Z,4.38
2022-11-22T13:50:38.511Z,3.30
2022-11-22T13:53:22.818Z,8.05
2022-11-22T13:55:50.297Z,9.02
2022-11-22T13:58:26.999Z,7.22
2022-11-22T14:00:55.489Z,5.40
2022-11-22T14:03:22.993Z,5.05
2022-11-22T14:05:54.707Z,6.90
2022-11-22T14:08:31.279Z,8.00
2022-11-22T14:10:59.124Z,6.10
2022-11-22T14:13:26.517Z,4.97
2022-11-22T14:15:56.938Z,6.85
2022-11-22T14:18:42.633Z,6.85
2022-11-22T14:21:16.088Z,6.35
2022-11-22T14:24:22.267Z,6.25
2022-11-22T14:26:55.619Z,4.25
2022-11-22T14:29:53.535Z,5.32
2022-11-22T14:32:24.888Z,4.25
2022-11-22T14:35:04.330Z,5.88
2022-11-22T14:37:35.981Z,4.20
2022-11-22T14:40:23.563Z,5.43
2022-11-22T14:42:52.973Z,4.93
2022-11-22T14:45:23.679Z,5.75
2022-11-22T14:47:53.958Z,1.77
2022-11-22T14:50:27.437Z,2.42
2022-11-22T14:52:56.574Z,5.10
2022-11-22T14:55:33.901Z,3.58
2022-11-22T14:58:09.100Z,4.63
2022-11-22T15:00:43.586Z,4.38
2022-11-22T15:03:29.623Z,5.07
2022-11-22T15:09:22.945Z,5.43
2022-11-22T15:09:52.551Z,4.72
2022-11-22T15:12:32.905Z,2.85
2022-11-22T15:59:42.158Z,4.00
2022-11-22T16:02:20.405Z,2.20
2022-11-22T16:06:10.445Z,4.88
2022-11-22T16:07:43.598Z,3.60
2022-11-22T16:10:24.617Z,3.13
2022-11-22T16:12:52.457Z,4.63
2022-11-22T16:15:29.249Z,3.47
2022-11-22T16:18:22.996Z,4.30
2022-11-22T16:21:01.649Z,4.18
2022-11-22T16:23:29.502Z,3.28
2022-11-22T16:26:01.347Z,3.03
2022-11-22T16:28:38.288Z,3.47
2022-11-22T16:31:17.743Z,2.80
2022-11-22T16:33:46.585Z,4.32
2022-11-22T16:38:43.628Z,2.97
2022-11-22T16:41:19.459Z,4.63
2022-11-22T16:43:50.950Z,4.50
2022-11-22T16:46:19.459Z,2.35
2022-11-22T16:48:47.325Z,3.47
2022-11-22T16:51:25.995Z,3.90
2022-11-22T16:53:54.002Z,3.63
2022-11-22T16:56:23.313Z,3.03
2022-11-22T16:58:51.525Z,3.60
2022-11-22T17:01:21.593Z,2.83
2022-11-22T17:03:50.552Z,3.38
2022-11-22T17:06:19.720Z,5.05
2022-11-22T17:08:47.741Z,4.95
2022-11-22T17:11:18.045Z,2.63
2022-11-22T17:13:46.096Z,2.17
2022-11-22T17:16:14.591Z,5.15
2022-11-22T17:18:42.260Z,4.13
2022-11-22T17:21:24.607Z,2.35
2022-11-22T17:23:52.695Z,5.47
2022-11-22T17:26:20.515Z,4.95
2022-11-22T17:28:48.400Z,5.50
2022-11-22T17:31:17.930Z,3.05
2022-11-22T17:33:45.649Z,4.28
2022-11-22T17:36:28.572Z,6.40
2022-11-22T17:38:56.945Z,6.78
2022-11-22T17:41:24.970Z,2.80
2022-11-22T17:43:55.268Z,4.93
2022-11-22T17:46:23.108Z,4.07
2022-11-22T17:48:54.675Z,4.18
2022-11-22T17:51:23.667Z,5.53
2022-11-22T17:56:18.841Z,4.22
2022-11-22T17:58:46.594Z,3.38
2022-11-22T18:01:21.125Z,4.43
2022-11-22T18:03:48.941Z,3.80
2022-11-22T18:06:17.208Z,4.45
2022-11-22T18:08:47.180Z,4.55
2022-11-22T18:11:15.778Z,3.10
2022-11-22T18:13:43.831Z,5.95
2022-11-22T18:16:16.027Z,4.38
2022-11-22T18:18:59.730Z,2.92
2022-11-22T18:21:29.863Z,4.03
2022-11-22T18:23:59.189Z,3.35
2022-11-22T18:31:59.728Z,3.33
2022-11-22T18:34:28.192Z,2.27
2022-11-22T18:37:00.781Z,4.90
2022-11-22T18:39:31.745Z,3.80
2022-11-22T18:41:59.922Z,4.53
2022-11-22T18:44:27.776Z,3.97
2022-11-22T18:46:57.830Z,3.50
2022-11-22T18:49:25.658Z,3.10
2022-11-22T18:51:55.815Z,3.08
2022-11-22T18:54:26.687Z,2.67
2022-11-22T18:56:54.661Z,2.95
2022-11-22T18:59:24.734Z,4.45
2022-11-22T19:01:52.675Z,4.40
2022-11-22T19:04:20.636Z,1.85
2022-11-22T19:06:49.620Z,3.05
2022-11-22T19:09:17.784Z,4.50
2022-11-22T19:11:45.739Z,3.00
2022-11-22T19:14:13.620Z,6.10
2022-11-22T19:16:41.749Z,3.83
2022-11-22T19:19:15.191Z,2.92
2022-11-22T19:21:43.604Z,4.55
2022-11-22T19:24:11.600Z,3.83
2022-11-22T19:26:41.909Z,2.47
2022-11-22T19:29:09.978Z,2.30
2022-11-22T19:31:38.496Z,3.63
2022-11-22T19:34:06.661Z,2.72
2022-11-22T19:36:36.923Z,3.42
2022-11-22T19:39:05.801Z,5.75
2022-11-22T19:41:33.879Z,2.22
2022-11-22T19:44:02.188Z,2.03
2022-11-22T19:46:31.273Z,2.67
2022-11-22T19:51:33.412Z,3.45
2022-11-22T19:54:05.265Z,3.38
2022-11-22T19:56:41.196Z,1.70
2022-11-22T19:59:11.435Z,2.05
2022-11-22T20:01:39.967Z,1.73
2022-11-22T20:04:08.491Z,3.72
2022-11-22T20:06:38.566Z,2.83
2022-11-22T20:09:08.681Z,1.20
2022-11-22T20:11:36.714Z,2.40
2022-11-22T20:14:04.363Z,1.10
2022-11-22T20:16:32.876Z,2.35
2022-11-22T20:19:01.895Z,1.10
2022-11-22T20:24:00.561Z,0.82
2022-11-22T20:26:28.831Z,0.85
2022-11-22T20:29:00.189Z,0.60
2022-11-22T20:31:28.887Z,1.02
2022-11-22T20:33:56.712Z,0.57
2022-11-22T20:36:28.753Z,0.10
2022-11-22T20:38:56.903Z,0.35
2022-11-22T20:41:25.846Z,0.53
2022-11-22T20:46:25.491Z,0.68
2022-11-22T20:48:55.834Z,1.85
2022-11-22T20:51:24.864Z,0.88
2022-11-22T20:56:20.355Z,1.77
2022-11-22T20:58:48.571Z,1.00
2022-11-22T21:01:17.888Z,1.53
2022-11-22T21:03:45.813Z,0.47
2022-11-22T21:06:14.155Z,0.93
2022-11-22T21:08:42.165Z,0.57
2022-11-22T21:11:16.981Z,0.77
2022-11-22T21:13:44.832Z,1.13
2022-11-22T21:16:22.794Z,0.10
2022-11-22T21:18:55.422Z,0.28
2022-11-22T21:21:24.086Z,0.82
2022-11-22T21:23:52.756Z,0.63
2022-11-22T21:26:20.380Z,1.20
2022-11-22T21:28:47.864Z,0.10
2022-11-22T21:31:15.576Z,1.92
2022-11-22T21:33:42.907Z,1.73
2022-11-22T21:36:10.474Z,0.38
2022-11-22T21:38:41.127Z,0.28
2022-11-22T21:41:38.269Z,0.20
2022-11-22T21:43:58.162Z,1.85
2022-11-22T21:46:25.631Z,1.20
2022-11-22T21:48:56.017Z,1.35
2022-11-22T21:51:26.481Z,1.67
2022-11-22T21:54:01.071Z,1.30
2022-11-22T21:56:28.904Z,0.75
2022-11-22T21:58:56.430Z,1.20
2022-11-22T22:01:26.663Z,0.20
2022-11-22T22:03:54.353Z,1.50
2022-11-22T22:06:22.161Z,1.45
2022-11-22T22:08:49.744Z,0.15
2022-11-22T22:11:17.538Z,0.73
2022-11-22T22:13:45.203Z,0.25
2022-11-22T22:16:18.756Z,0.98
2022-11-22T22:18:47.365Z,0.40
2022-11-22T22:21:15.037Z,1.65
2022-11-22T22:23:42.898Z,0.75
2022-11-22T22:26:11.519Z,0.00
2022-11-22T22:28:39.768Z,0.10
2022-11-22T22:31:11.346Z,0.47
2022-11-22T22:33:40.326Z,1.13
2022-11-22T22:38:35.023Z,0.00
2022-11-22T22:41:03.364Z,0.93
2022-11-22T22:43:34.929Z,0.47
2022-11-22T22:46:06.731Z,0.40
2022-11-22T22:48:35.024Z,1.45
2022-11-22T22:51:13.417Z,0.93
2022-11-22T22:53:43.990Z,0.40
2022-11-22T22:56:12.477Z,0.50
2022-11-22T22:58:39.938Z,0.68
2022-11-22T23:01:09.542Z,0.22
2022-11-22T23:03:38.094Z,0.60
2022-11-22T23:06:06.513Z,0.85
2022-11-22T23:08:33.911Z,0.88
2022-11-22T23:11:05.478Z,0.00
2022-11-22T23:13:33.039Z,0.45
2022-11-22T23:16:00.655Z,0.00
2022-11-22T23:18:28.641Z,0.00
2022-11-22T23:20:59.921Z,0.88
2022-11-22T23:23:27.315Z,0.68
2022-11-22T23:25:54.739Z,0.30
2022-11-22T23:28:22.302Z,0.00
2022-11-22T23:30:49.735Z,0.40
2022-11-22T23:33:17.118Z,0.80
2022-11-22T23:35:44.747Z,0.75
2022-11-22T23:38:12.176Z,0.40
2022-11-22T23:40:39.526Z,0.40
2022-11-22T23:43:06.935Z,0.90
2022-11-22T23:45:34.281Z,0.00
2022-11-22T23:48:04.085Z,0.95
2022-11-22T23:50:36.056Z,0.90
2022-11-22T23:53:04.820Z,0.25
2022-11-22T23:55:32.194Z,0.00
2022-11-22T23:57:59.892Z,0.70
